sensor_id;sensor_type;location;lat;lon;timestamp;temperature;humidity
51559;DHT22;61650;48.882;2.092;2023-02-28T00:00:08;0.10;61.80
51559;DHT22;61650;48.882;2.092;2023-02-28T00:02:36;0.10;62.80
51559;DHT22;61650;48.882;2.092;2023-02-28T00:05:03;0.10;62.10
51559;DHT22;61650;48.882;2.092;2023-02-28T00:07:30;0.10;62.10
51559;DHT22;61650;48.882;2.092;2023-02-28T00:09:56;0.10;62.00
51559;DHT22;61650;48.882;2.092;2023-02-28T00:12:21;0.10;62.80
51559;DHT22;61650;48.882;2.092;2023-02-28T00:14:47;0.10;62.60
51559;DHT22;61650;48.882;2.092;2023-02-28T00:17:13;0.10;62.70
51559;DHT22;61650;48.882;2.092;2023-02-28T00:19:38;0.10;62.80
51559;DHT22;61650;48.882;2.092;2023-02-28T00:22:04;0.00;63.40
51559;DHT22;61650;48.882;2.092;2023-02-28T00:24:29;0.00;63.80
51559;DHT22;61650;48.882;2.092;2023-02-28T00:26:55;-0.10;64.30
51559;DHT22;61650;48.882;2.092;2023-02-28T00:29:21;-0.10;64.20
51559;DHT22;61650;48.882;2.092;2023-02-28T00:31:46;-0.10;64.60
51559;DHT22;61650;48.882;2.092;2023-02-28T00:34:12;-0.20;65.10
51559;DHT22;61650;48.882;2.092;2023-02-28T00:36:38;-0.40;65.20
51559;DHT22;61650;48.882;2.092;2023-02-28T00:39:03;-0.60;66.20
51559;DHT22;61650;48.882;2.092;2023-02-28T00:41:29;-0.80;67.40
51559;DHT22;61650;48.882;2.092;2023-02-28T00:43:55;-1.00;68.10
51559;DHT22;61650;48.882;2.092;2023-02-28T00:46:20;-1.00;68.50
51559;DHT22;61650;48.882;2.092;2023-02-28T00:48:46;-1.00;68.80
51559;DHT22;61650;48.882;2.092;2023-02-28T00:51:11;-1.00;69.00
51559;DHT22;61650;48.882;2.092;2023-02-28T00:53:37;-1.10;69.50
51559;DHT22;61650;48.882;2.092;2023-02-28T00:56:03;-1.10;69.40
51559;DHT22;61650;48.882;2.092;2023-02-28T00:58:29;-0.90;69.00
51559;DHT22;61650;48.882;2.092;2023-02-28T01:00:55;-1.00;69.10
51559;DHT22;61650;48.882;2.092;2023-02-28T01:03:21;-0.90;68.70
51559;DHT22;61650;48.882;2.092;2023-02-28T01:05:47;-0.80;67.90
51559;DHT22;61650;48.882;2.092;2023-02-28T01:08:14;-0.80;68.10
51559;DHT22;61650;48.882;2.092;2023-02-28T01:10:40;-0.70;67.60
51559;DHT22;61650;48.882;2.092;2023-02-28T01:13:06;-0.60;67.30
51559;DHT22;61650;48.882;2.092;2023-02-28T01:15:32;-0.50;66.70
51559;DHT22;61650;48.882;2.092;2023-02-28T01:17:58;-0.50;66.30
51559;DHT22;61650;48.882;2.092;2023-02-28T01:20:24;-0.40;65.90
51559;DHT22;61650;48.882;2.092;2023-02-28T01:22:50;-0.30;66.00
51559;DHT22;61650;48.882;2.092;2023-02-28T01:25:15;-0.30;65.90
51559;DHT22;61650;48.882;2.092;2023-02-28T01:27:41;-0.20;65.60
51559;DHT22;61650;48.882;2.092;2023-02-28T01:30:08;-0.10;65.00
51559;DHT22;61650;48.882;2.092;2023-02-28T01:32:35;-0.20;65.40
51559;DHT22;61650;48.882;2.092;2023-02-28T01:35:00;-0.30;65.80
51559;DHT22;61650;48.882;2.092;2023-02-28T01:37:26;-0.40;65.70
51559;DHT22;61650;48.882;2.092;2023-02-28T01:39:52;-0.60;66.80
51559;DHT22;61650;48.882;2.092;2023-02-28T01:42:18;-0.90;67.60
51559;DHT22;61650;48.882;2.092;2023-02-28T01:47:49;-1.00;68.00
51559;DHT22;61650;48.882;2.092;2023-02-28T01:50:19;-0.80;67.10
51559;DHT22;61650;48.882;2.092;2023-02-28T01:52:47;-0.80;66.60
51559;DHT22;61650;48.882;2.092;2023-02-28T01:55:15;-0.70;66.40
51559;DHT22;61650;48.882;2.092;2023-02-28T01:57:46;-0.70;66.30
51559;DHT22;61650;48.882;2.092;2023-02-28T02:00:15;-0.70;66.40
51559;DHT22;61650;48.882;2.092;2023-02-28T02:02:44;-0.70;65.80
51559;DHT22;61650;48.882;2.092;2023-02-28T02:05:23;-0.70;65.50
51559;DHT22;61650;48.882;2.092;2023-02-28T02:07:55;-0.70;65.90
51559;DHT22;61650;48.882;2.092;2023-02-28T02:10:45;-0.80;66.40
51559;DHT22;61650;48.882;2.092;2023-02-28T02:18:53;-0.80;66.90
51559;DHT22;61650;48.882;2.092;2023-02-28T02:24:33;-0.90;66.90
51559;DHT22;61650;48.882;2.092;2023-02-28T02:35:16;-1.40;68.60
51559;DHT22;61650;48.882;2.092;2023-02-28T02:40:46;-1.90;70.90
51559;DHT22;61650;48.882;2.092;2023-02-28T02:43:25;-2.10;71.90
51559;DHT22;61650;48.882;2.092;2023-02-28T02:45:58;-2.30;72.60
51559;DHT22;61650;48.882;2.092;2023-02-28T02:48:29;-2.30;73.10
51559;DHT22;61650;48.882;2.092;2023-02-28T02:50:58;-2.50;73.50
51559;DHT22;61650;48.882;2.092;2023-02-28T02:53:29;-2.60;74.10
51559;DHT22;61650;48.882;2.092;2023-02-28T02:55:56;-2.50;74.00
51559;DHT22;61650;48.882;2.092;2023-02-28T02:58:31;-2.60;74.20
51559;DHT22;61650;48.882;2.092;2023-02-28T03:01:00;-2.50;74.10
51559;DHT22;61650;48.882;2.092;2023-02-28T03:03:28;-2.50;73.80
51559;DHT22;61650;48.882;2.092;2023-02-28T03:05:57;-2.60;74.00
51559;DHT22;61650;48.882;2.092;2023-02-28T03:08:23;-2.60;74.30
51559;DHT22;61650;48.882;2.092;2023-02-28T03:10:51;-2.60;74.00
51559;DHT22;61650;48.882;2.092;2023-02-28T03:22:17;-2.80;75.00
51559;DHT22;61650;48.882;2.092;2023-02-28T03:30:56;-2.70;74.40
51559;DHT22;61650;48.882;2.092;2023-02-28T03:33:28;-2.90;75.10
51559;DHT22;61650;48.882;2.092;2023-02-28T03:36:09;-2.90;75.30
51559;DHT22;61650;48.882;2.092;2023-02-28T03:38:44;-2.90;75.30
51559;DHT22;61650;48.882;2.092;2023-02-28T03:41:19;-3.00;75.40
51559;DHT22;61650;48.882;2.092;2023-02-28T03:43:58;-2.90;74.40
51559;DHT22;61650;48.882;2.092;2023-02-28T03:46:30;-3.00;75.40
51559;DHT22;61650;48.882;2.092;2023-02-28T03:49:22;-3.00;75.80
51559;DHT22;61650;48.882;2.092;2023-02-28T03:51:50;-3.00;75.70
51559;DHT22;61650;48.882;2.092;2023-02-28T03:54:20;-2.90;75.10
51559;DHT22;61650;48.882;2.092;2023-02-28T03:57:07;-2.90;75.30
51559;DHT22;61650;48.882;2.092;2023-02-28T03:59:46;-3.00;75.20
51559;DHT22;61650;48.882;2.092;2023-02-28T04:02:13;-3.00;75.60
51559;DHT22;61650;48.882;2.092;2023-02-28T04:04:39;-3.00;75.60
51559;DHT22;61650;48.882;2.092;2023-02-28T04:07:14;-3.00;75.70
51559;DHT22;61650;48.882;2.092;2023-02-28T04:09:39;-3.00;75.40
51559;DHT22;61650;48.882;2.092;2023-02-28T04:12:05;-3.10;75.70
51559;DHT22;61650;48.882;2.092;2023-02-28T04:14:31;-3.20;76.20
51559;DHT22;61650;48.882;2.092;2023-02-28T04:16:57;-3.20;75.20
51559;DHT22;61650;48.882;2.092;2023-02-28T04:19:22;-3.20;76.30
51559;DHT22;61650;48.882;2.092;2023-02-28T04:21:50;-3.30;76.70
51559;DHT22;61650;48.882;2.092;2023-02-28T04:24:19;-3.30;76.90
51559;DHT22;61650;48.882;2.092;2023-02-28T04:26:49;-3.20;76.40
51559;DHT22;61650;48.882;2.092;2023-02-28T04:29:21;-3.30;76.40
51559;DHT22;61650;48.882;2.092;2023-02-28T04:31:46;-3.30;76.40
51559;DHT22;61650;48.882;2.092;2023-02-28T04:34:12;-3.40;76.70
51559;DHT22;61650;48.882;2.092;2023-02-28T04:36:38;-3.50;77.00
51559;DHT22;61650;48.882;2.092;2023-02-28T04:39:04;-3.50;77.50
51559;DHT22;61650;48.882;2.092;2023-02-28T04:41:30;-3.50;77.90
51559;DHT22;61650;48.882;2.092;2023-02-28T04:43:55;-3.40;77.60
51559;DHT22;61650;48.882;2.092;2023-02-28T04:46:22;-3.30;77.00
51559;DHT22;61650;48.882;2.092;2023-02-28T04:48:48;-3.20;76.70
51559;DHT22;61650;48.882;2.092;2023-02-28T04:51:16;-2.90;76.00
51559;DHT22;61650;48.882;2.092;2023-02-28T04:53:42;-2.90;75.10
51559;DHT22;61650;48.882;2.092;2023-02-28T04:56:11;-3.00;75.50
51559;DHT22;61650;48.882;2.092;2023-02-28T04:58:37;-3.10;75.60
51559;DHT22;61650;48.882;2.092;2023-02-28T05:01:26;-3.10;75.80
51559;DHT22;61650;48.882;2.092;2023-02-28T05:03:55;-3.30;76.40
51559;DHT22;61650;48.882;2.092;2023-02-28T05:06:23;-3.30;76.60
51559;DHT22;61650;48.882;2.092;2023-02-28T05:08:52;-3.40;77.00
51559;DHT22;61650;48.882;2.092;2023-02-28T05:11:23;-3.40;77.40
51559;DHT22;61650;48.882;2.092;2023-02-28T05:13:50;-3.40;77.50
51559;DHT22;61650;48.882;2.092;2023-02-28T05:16:17;-3.40;77.40
51559;DHT22;61650;48.882;2.092;2023-02-28T05:18:43;-3.40;77.20
51559;DHT22;61650;48.882;2.092;2023-02-28T05:23:50;-3.40;77.20
51559;DHT22;61650;48.882;2.092;2023-02-28T05:26:15;-3.30;77.00
51559;DHT22;61650;48.882;2.092;2023-02-28T05:28:41;-3.20;77.00
51559;DHT22;61650;48.882;2.092;2023-02-28T05:31:10;-3.00;76.60
51559;DHT22;61650;48.882;2.092;2023-02-28T05:33:36;-2.90;75.80
51559;DHT22;61650;48.882;2.092;2023-02-28T05:36:01;-2.70;75.30
51559;DHT22;61650;48.882;2.092;2023-02-28T05:38:27;-2.60;74.70
51559;DHT22;61650;48.882;2.092;2023-02-28T05:40:53;-2.60;75.00
51559;DHT22;61650;48.882;2.092;2023-02-28T05:43:18;-2.50;74.50
51559;DHT22;61650;48.882;2.092;2023-02-28T05:45:44;-2.50;74.40
51559;DHT22;61650;48.882;2.092;2023-02-28T05:48:10;-2.50;74.10
51559;DHT22;61650;48.882;2.092;2023-02-28T05:50:36;-2.50;74.20
51559;DHT22;61650;48.882;2.092;2023-02-28T05:53:01;-2.60;74.50
51559;DHT22;61650;48.882;2.092;2023-02-28T05:55:27;-2.50;74.10
51559;DHT22;61650;48.882;2.092;2023-02-28T05:57:53;-2.50;74.00
51559;DHT22;61650;48.882;2.092;2023-02-28T06:00:19;-2.50;74.10
51559;DHT22;61650;48.882;2.092;2023-02-28T06:02:44;-2.50;74.30
51559;DHT22;61650;48.882;2.092;2023-02-28T06:05:14;-2.60;74.60
51559;DHT22;61650;48.882;2.092;2023-02-28T06:07:41;-2.50;74.50
51559;DHT22;61650;48.882;2.092;2023-02-28T06:10:07;-2.50;74.40
51559;DHT22;61650;48.882;2.092;2023-02-28T06:12:33;-2.40;74.20
51559;DHT22;61650;48.882;2.092;2023-02-28T06:14:59;-2.40;73.80
51559;DHT22;61650;48.882;2.092;2023-02-28T06:17:24;-2.40;74.40
51559;DHT22;61650;48.882;2.092;2023-02-28T06:19:50;-2.40;74.40
51559;DHT22;61650;48.882;2.092;2023-02-28T06:22:16;-2.40;74.10
51559;DHT22;61650;48.882;2.092;2023-02-28T06:24:41;-2.50;74.60
51559;DHT22;61650;48.882;2.092;2023-02-28T06:27:07;-2.50;74.80
51559;DHT22;61650;48.882;2.092;2023-02-28T06:29:33;-2.50;74.30
51559;DHT22;61650;48.882;2.092;2023-02-28T06:32:00;-2.60;74.70
51559;DHT22;61650;48.882;2.092;2023-02-28T06:34:26;-2.90;75.50
51559;DHT22;61650;48.882;2.092;2023-02-28T06:36:52;-3.00;76.30
51559;DHT22;61650;48.882;2.092;2023-02-28T06:39:18;-3.00;76.10
51559;DHT22;61650;48.882;2.092;2023-02-28T06:41:43;-3.00;76.30
51559;DHT22;61650;48.882;2.092;2023-02-28T06:44:17;-3.00;76.80
51559;DHT22;61650;48.882;2.092;2023-02-28T06:46:44;-3.10;77.20
51559;DHT22;61650;48.882;2.092;2023-02-28T06:49:11;-3.10;77.40
51559;DHT22;61650;48.882;2.092;2023-02-28T06:51:39;-3.10;77.40
51559;DHT22;61650;48.882;2.092;2023-02-28T06:54:05;-3.10;77.50
51559;DHT22;61650;48.882;2.092;2023-02-28T06:56:35;-3.20;78.00
51559;DHT22;61650;48.882;2.092;2023-02-28T06:59:01;-3.20;77.20
51559;DHT22;61650;48.882;2.092;2023-02-28T07:01:27;-3.20;77.20
51559;DHT22;61650;48.882;2.092;2023-02-28T07:03:53;-3.20;77.10
51559;DHT22;61650;48.882;2.092;2023-02-28T07:06:21;-3.10;77.00
51559;DHT22;61650;48.882;2.092;2023-02-28T07:08:48;-3.20;77.30
51559;DHT22;61650;48.882;2.092;2023-02-28T07:11:14;-3.30;77.70
51559;DHT22;61650;48.882;2.092;2023-02-28T07:13:40;-3.30;78.10
51559;DHT22;61650;48.882;2.092;2023-02-28T07:16:07;-3.30;77.90
51559;DHT22;61650;48.882;2.092;2023-02-28T07:18:35;-3.30;78.40
51559;DHT22;61650;48.882;2.092;2023-02-28T07:21:05;-3.40;79.10
51559;DHT22;61650;48.882;2.092;2023-02-28T07:23:32;-3.40;79.20
51559;DHT22;61650;48.882;2.092;2023-02-28T07:25:57;-3.30;79.00
51559;DHT22;61650;48.882;2.092;2023-02-28T07:28:24;-3.20;79.10
51559;DHT22;61650;48.882;2.092;2023-02-28T07:30:50;-3.20;79.00
51559;DHT22;61650;48.882;2.092;2023-02-28T07:33:15;-3.20;79.30
51559;DHT22;61650;48.882;2.092;2023-02-28T07:35:41;-3.10;79.50
51559;DHT22;61650;48.882;2.092;2023-02-28T07:38:07;-3.00;78.40
51559;DHT22;61650;48.882;2.092;2023-02-28T07:40:33;-3.00;78.60
51559;DHT22;61650;48.882;2.092;2023-02-28T07:43:02;-2.90;78.60
51559;DHT22;61650;48.882;2.092;2023-02-28T07:45:29;-2.80;78.60
51559;DHT22;61650;48.882;2.092;2023-02-28T07:47:55;-2.70;78.80
51559;DHT22;61650;48.882;2.092;2023-02-28T07:50:22;-2.60;78.20
51559;DHT22;61650;48.882;2.092;2023-02-28T07:52:47;-2.40;77.40
51559;DHT22;61650;48.882;2.092;2023-02-28T07:55:13;-2.30;77.10
51559;DHT22;61650;48.882;2.092;2023-02-28T07:57:40;-2.00;76.60
51559;DHT22;61650;48.882;2.092;2023-02-28T08:00:08;-1.80;75.20
51559;DHT22;61650;48.882;2.092;2023-02-28T08:02:38;-1.60;74.20
51559;DHT22;61650;48.882;2.092;2023-02-28T08:05:04;-1.40;73.90
51559;DHT22;61650;48.882;2.092;2023-02-28T08:07:30;-1.20;73.80
51559;DHT22;61650;48.882;2.092;2023-02-28T08:09:56;-1.10;73.20
51559;DHT22;61650;48.882;2.092;2023-02-28T08:12:21;-0.90;72.40
51559;DHT22;61650;48.882;2.092;2023-02-28T08:14:47;-0.90;72.00
51559;DHT22;61650;48.882;2.092;2023-02-28T08:17:12;-0.80;71.60
51559;DHT22;61650;48.882;2.092;2023-02-28T08:19:38;-0.70;71.50
51559;DHT22;61650;48.882;2.092;2023-02-28T08:22:04;-0.60;71.10
51559;DHT22;61650;48.882;2.092;2023-02-28T08:24:29;-0.60;71.10
51559;DHT22;61650;48.882;2.092;2023-02-28T08:26:55;-0.50;70.80
51559;DHT22;61650;48.882;2.092;2023-02-28T08:29:21;-0.40;70.90
51559;DHT22;61650;48.882;2.092;2023-02-28T08:31:47;-0.40;70.60
51559;DHT22;61650;48.882;2.092;2023-02-28T08:34:14;-0.20;69.90
51559;DHT22;61650;48.882;2.092;2023-02-28T08:36:41;0.10;69.30
51559;DHT22;61650;48.882;2.092;2023-02-28T08:39:07;0.10;68.50
51559;DHT22;61650;48.882;2.092;2023-02-28T08:41:33;0.10;68.70
51559;DHT22;61650;48.882;2.092;2023-02-28T08:43:59;0.20;68.40
51559;DHT22;61650;48.882;2.092;2023-02-28T08:46:25;0.20;68.10
51559;DHT22;61650;48.882;2.092;2023-02-28T08:48:53;0.20;67.40
51559;DHT22;61650;48.882;2.092;2023-02-28T08:51:19;0.20;67.30
51559;DHT22;61650;48.882;2.092;2023-02-28T08:53:47;0.30;67.50
51559;DHT22;61650;48.882;2.092;2023-02-28T08:56:15;0.30;67.70
51559;DHT22;61650;48.882;2.092;2023-02-28T08:58:43;0.40;67.20
51559;DHT22;61650;48.882;2.092;2023-02-28T09:01:13;0.40;66.20
51559;DHT22;61650;48.882;2.092;2023-02-28T09:03:39;0.50;66.80
51559;DHT22;61650;48.882;2.092;2023-02-28T09:06:06;0.60;66.10
51559;DHT22;61650;48.882;2.092;2023-02-28T09:08:33;0.60;65.10
51559;DHT22;61650;48.882;2.092;2023-02-28T09:10:58;0.60;65.70
51559;DHT22;61650;48.882;2.092;2023-02-28T09:13:25;0.70;65.70
51559;DHT22;61650;48.882;2.092;2023-02-28T09:15:51;0.70;65.40
51559;DHT22;61650;48.882;2.092;2023-02-28T09:18:17;0.80;65.00
51559;DHT22;61650;48.882;2.092;2023-02-28T09:20:43;0.90;64.80
51559;DHT22;61650;48.882;2.092;2023-02-28T09:23:10;0.90;64.60
51559;DHT22;61650;48.882;2.092;2023-02-28T09:25:36;1.00;64.50
51559;DHT22;61650;48.882;2.092;2023-02-28T09:28:03;1.20;63.60
51559;DHT22;61650;48.882;2.092;2023-02-28T09:30:29;1.20;62.30
51559;DHT22;61650;48.882;2.092;2023-02-28T09:32:55;1.20;63.00
51559;DHT22;61650;48.882;2.092;2023-02-28T09:35:22;1.20;63.70
51559;DHT22;61650;48.882;2.092;2023-02-28T09:37:51;1.30;63.70
51559;DHT22;61650;48.882;2.092;2023-02-28T09:40:21;1.30;63.40
51559;DHT22;61650;48.882;2.092;2023-02-28T09:42:49;1.40;63.50
51559;DHT22;61650;48.882;2.092;2023-02-28T09:45:36;1.50;62.10
51559;DHT22;61650;48.882;2.092;2023-02-28T09:48:20;1.50;61.90
51559;DHT22;61650;48.882;2.092;2023-02-28T09:50:51;1.40;62.30
51559;DHT22;61650;48.882;2.092;2023-02-28T09:53:33;1.40;61.70
51559;DHT22;61650;48.882;2.092;2023-02-28T09:56:07;1.50;61.20
51559;DHT22;61650;48.882;2.092;2023-02-28T09:59:02;1.50;61.00
51559;DHT22;61650;48.882;2.092;2023-02-28T10:01:37;1.50;61.10
51559;DHT22;61650;48.882;2.092;2023-02-28T10:06:48;1.70;61.90
51559;DHT22;61650;48.882;2.092;2023-02-28T10:09:22;1.70;60.30
51559;DHT22;61650;48.882;2.092;2023-02-28T10:11:55;1.70;60.00
51559;DHT22;61650;48.882;2.092;2023-02-28T10:14:24;1.80;60.80
51559;DHT22;61650;48.882;2.092;2023-02-28T10:17:04;1.80;60.30
51559;DHT22;61650;48.882;2.092;2023-02-28T10:19:42;1.90;60.50
51559;DHT22;61650;48.882;2.092;2023-02-28T10:22:17;2.10;60.90
51559;DHT22;61650;48.882;2.092;2023-02-28T10:24:51;2.10;59.30
51559;DHT22;61650;48.882;2.092;2023-02-28T10:27:23;2.20;58.60
51559;DHT22;61650;48.882;2.092;2023-02-28T10:29:54;2.40;59.90
51559;DHT22;61650;48.882;2.092;2023-02-28T10:35:16;2.40;57.40
51559;DHT22;61650;48.882;2.092;2023-02-28T10:37:45;2.50;56.50
51559;DHT22;61650;48.882;2.092;2023-02-28T10:40:34;2.60;55.30
51559;DHT22;61650;48.882;2.092;2023-02-28T10:43:11;2.60;55.50
51559;DHT22;61650;48.882;2.092;2023-02-28T10:48:58;2.70;53.90
51559;DHT22;61650;48.882;2.092;2023-02-28T10:51:38;2.80;53.10
51559;DHT22;61650;48.882;2.092;2023-02-28T10:54:04;2.90;51.80
51559;DHT22;61650;48.882;2.092;2023-02-28T10:56:31;3.10;52.40
51559;DHT22;61650;48.882;2.092;2023-02-28T11:01:41;3.20;50.60
51559;DHT22;61650;48.882;2.092;2023-02-28T11:07:00;3.30;52.00
51559;DHT22;61650;48.882;2.092;2023-02-28T11:09:35;3.60;51.80
51559;DHT22;61650;48.882;2.092;2023-02-28T11:12:08;3.70;48.70
51559;DHT22;61650;48.882;2.092;2023-02-28T11:14:52;3.70;48.70
51559;DHT22;61650;48.882;2.092;2023-02-28T11:17:24;3.60;49.90
51559;DHT22;61650;48.882;2.092;2023-02-28T11:19:56;3.70;50.10
51559;DHT22;61650;48.882;2.092;2023-02-28T11:22:25;3.80;48.80
51559;DHT22;61650;48.882;2.092;2023-02-28T11:24:57;4.00;47.60
51559;DHT22;61650;48.882;2.092;2023-02-28T11:29:55;4.20;48.90
51559;DHT22;61650;48.882;2.092;2023-02-28T11:32:25;4.00;48.50
51559;DHT22;61650;48.882;2.092;2023-02-28T11:35:31;3.80;46.10
51559;DHT22;61650;48.882;2.092;2023-02-28T11:38:00;3.80;48.20
51559;DHT22;61650;48.882;2.092;2023-02-28T11:43:34;3.90;46.60
51559;DHT22;61650;48.882;2.092;2023-02-28T11:49:19;3.80;43.00
51559;DHT22;61650;48.882;2.092;2023-02-28T11:51:48;3.80;43.70
51559;DHT22;61650;48.882;2.092;2023-02-28T11:54:41;3.70;45.70
51559;DHT22;61650;48.882;2.092;2023-02-28T12:06:06;4.20;44.20
51559;DHT22;61650;48.882;2.092;2023-02-28T12:19:52;5.70;42.40
51559;DHT22;61650;48.882;2.092;2023-02-28T12:23:09;5.60;42.60
51559;DHT22;61650;48.882;2.092;2023-02-28T12:28:12;5.90;41.40
51559;DHT22;61650;48.882;2.092;2023-02-28T12:30:45;5.70;40.50
51559;DHT22;61650;48.882;2.092;2023-02-28T12:33:16;5.60;40.70
51559;DHT22;61650;48.882;2.092;2023-02-28T12:35:58;5.40;39.80
51559;DHT22;61650;48.882;2.092;2023-02-28T12:41:00;5.70;40.40
51559;DHT22;61650;48.882;2.092;2023-02-28T12:43:35;5.00;41.70
51559;DHT22;61650;48.882;2.092;2023-02-28T12:46:38;5.00;43.30
51559;DHT22;61650;48.882;2.092;2023-02-28T12:49:09;5.20;42.50
51559;DHT22;61650;48.882;2.092;2023-02-28T12:51:36;5.00;42.00
51559;DHT22;61650;48.882;2.092;2023-02-28T12:54:09;5.10;42.50
51559;DHT22;61650;48.882;2.092;2023-02-28T12:57:06;6.20;41.30
51559;DHT22;61650;48.882;2.092;2023-02-28T12:59:52;5.90;38.90
51559;DHT22;61650;48.882;2.092;2023-02-28T13:10:50;6.50;39.30
51559;DHT22;61650;48.882;2.092;2023-02-28T13:13:21;8.00;37.20
51559;DHT22;61650;48.882;2.092;2023-02-28T13:16:08;8.10;37.00
51559;DHT22;61650;48.882;2.092;2023-02-28T13:18:42;7.00;37.50
51559;DHT22;61650;48.882;2.092;2023-02-28T13:21:23;6.40;39.40
51559;DHT22;61650;48.882;2.092;2023-02-28T13:29:00;5.00;41.20
51559;DHT22;61650;48.882;2.092;2023-02-28T13:31:26;4.70;41.80
51559;DHT22;61650;48.882;2.092;2023-02-28T13:36:28;4.90;41.50
51559;DHT22;61650;48.882;2.092;2023-02-28T13:39:03;5.30;41.10
51559;DHT22;61650;48.882;2.092;2023-02-28T13:41:48;5.70;39.40
51559;DHT22;61650;48.882;2.092;2023-02-28T13:44:17;5.50;40.40
51559;DHT22;61650;48.882;2.092;2023-02-28T13:51:47;5.80;38.80
51559;DHT22;61650;48.882;2.092;2023-02-28T14:05:32;6.50;35.50
51559;DHT22;61650;48.882;2.092;2023-02-28T14:08:04;5.60;36.70
51559;DHT22;61650;48.882;2.092;2023-02-28T14:10:35;6.00;38.80
51559;DHT22;61650;48.882;2.092;2023-02-28T14:16:00;7.80;36.40
51559;DHT22;61650;48.882;2.092;2023-02-28T14:18:32;8.10;35.00
51559;DHT22;61650;48.882;2.092;2023-02-28T14:21:11;8.30;35.60
51559;DHT22;61650;48.882;2.092;2023-02-28T14:32:15;7.70;36.70
51559;DHT22;61650;48.882;2.092;2023-02-28T14:34:52;10.50;31.70
51559;DHT22;61650;48.882;2.092;2023-02-28T14:37:25;12.20;32.00
51559;DHT22;61650;48.882;2.092;2023-02-28T14:39:51;13.20;30.20
51559;DHT22;61650;48.882;2.092;2023-02-28T14:42:35;10.50;31.10
51559;DHT22;61650;48.882;2.092;2023-02-28T14:45:01;7.90;34.20
51559;DHT22;61650;48.882;2.092;2023-02-28T14:47:32;8.30;33.10
51559;DHT22;61650;48.882;2.092;2023-02-28T14:49:59;10.00;32.60
51559;DHT22;61650;48.882;2.092;2023-02-28T14:52:31;10.90;30.40
51559;DHT22;61650;48.882;2.092;2023-02-28T14:55:00;11.90;30.30
51559;DHT22;61650;48.882;2.092;2023-02-28T15:02:47;12.30;29.20
51559;DHT22;61650;48.882;2.092;2023-02-28T15:07:39;11.80;28.20
51559;DHT22;61650;48.882;2.092;2023-02-28T15:10:20;8.80;32.00
51559;DHT22;61650;48.882;2.092;2023-02-28T15:12:59;7.00;34.10
51559;DHT22;61650;48.882;2.092;2023-02-28T15:15:32;6.50;35.20
51559;DHT22;61650;48.882;2.092;2023-02-28T15:18:03;6.30;35.60
51559;DHT22;61650;48.882;2.092;2023-02-28T15:20:32;6.00;36.00
51559;DHT22;61650;48.882;2.092;2023-02-28T15:22:58;5.80;36.60
51559;DHT22;61650;48.882;2.092;2023-02-28T15:25:25;5.70;36.80
51559;DHT22;61650;48.882;2.092;2023-02-28T15:27:53;5.70;36.70
51559;DHT22;61650;48.882;2.092;2023-02-28T15:30:31;5.40;37.10
51559;DHT22;61650;48.882;2.092;2023-02-28T15:33:23;4.80;37.00
51559;DHT22;61650;48.882;2.092;2023-02-28T15:35:50;4.50;38.10
51559;DHT22;61650;48.882;2.092;2023-02-28T15:38:25;4.30;38.40
51559;DHT22;61650;48.882;2.092;2023-02-28T15:40:57;4.20;38.60
51559;DHT22;61650;48.882;2.092;2023-02-28T15:43:31;4.30;38.40
51559;DHT22;61650;48.882;2.092;2023-02-28T15:46:09;4.40;38.30
51559;DHT22;61650;48.882;2.092;2023-02-28T15:48:54;4.70;38.20
51559;DHT22;61650;48.882;2.092;2023-02-28T15:51:23;4.80;37.50
51559;DHT22;61650;48.882;2.092;2023-02-28T15:59:02;4.60;37.00
51559;DHT22;61650;48.882;2.092;2023-02-28T16:01:31;4.40;37.10
51559;DHT22;61650;48.882;2.092;2023-02-28T16:04:03;4.30;37.60
51559;DHT22;61650;48.882;2.092;2023-02-28T16:06:38;4.20;37.50
51559;DHT22;61650;48.882;2.092;2023-02-28T16:09:08;4.20;37.70
51559;DHT22;61650;48.882;2.092;2023-02-28T16:11:38;4.20;38.30
51559;DHT22;61650;48.882;2.092;2023-02-28T16:14:04;4.20;38.20
51559;DHT22;61650;48.882;2.092;2023-02-28T16:16:31;4.10;38.50
51559;DHT22;61650;48.882;2.092;2023-02-28T16:18:56;4.10;39.30
51559;DHT22;61650;48.882;2.092;2023-02-28T16:21:22;4.10;39.20
51559;DHT22;61650;48.882;2.092;2023-02-28T16:23:49;4.00;39.20
51559;DHT22;61650;48.882;2.092;2023-02-28T16:26:24;3.90;39.30
51559;DHT22;61650;48.882;2.092;2023-02-28T16:28:52;3.80;38.90
51559;DHT22;61650;48.882;2.092;2023-02-28T16:31:17;3.80;39.10
51559;DHT22;61650;48.882;2.092;2023-02-28T16:33:44;3.80;38.90
51559;DHT22;61650;48.882;2.092;2023-02-28T16:36:15;3.70;39.10
51559;DHT22;61650;48.882;2.092;2023-02-28T16:38:41;3.70;39.10
51559;DHT22;61650;48.882;2.092;2023-02-28T16:41:15;3.70;39.00
51559;DHT22;61650;48.882;2.092;2023-02-28T16:43:45;3.50;38.20
51559;DHT22;61650;48.882;2.092;2023-02-28T16:46:12;3.50;38.80
51559;DHT22;61650;48.882;2.092;2023-02-28T16:48:38;3.40;38.90
51559;DHT22;61650;48.882;2.092;2023-02-28T16:51:07;3.50;39.10
51559;DHT22;61650;48.882;2.092;2023-02-28T16:53:33;3.50;39.40
51559;DHT22;61650;48.882;2.092;2023-02-28T16:56:00;3.50;39.20
51559;DHT22;61650;48.882;2.092;2023-02-28T16:58:27;3.50;39.50
51559;DHT22;61650;48.882;2.092;2023-02-28T17:00:53;3.40;39.50
51559;DHT22;61650;48.882;2.092;2023-02-28T17:03:26;3.40;39.50
51559;DHT22;61650;48.882;2.092;2023-02-28T17:05:53;3.40;39.80
51559;DHT22;61650;48.882;2.092;2023-02-28T17:08:18;3.40;39.80
51559;DHT22;61650;48.882;2.092;2023-02-28T17:10:44;3.40;39.80
51559;DHT22;61650;48.882;2.092;2023-02-28T17:13:10;3.30;39.90
51559;DHT22;61650;48.882;2.092;2023-02-28T17:15:37;3.30;40.00
51559;DHT22;61650;48.882;2.092;2023-02-28T17:18:03;3.30;40.00
51559;DHT22;61650;48.882;2.092;2023-02-28T17:20:29;3.20;40.00
51559;DHT22;61650;48.882;2.092;2023-02-28T17:22:56;3.20;40.30
51559;DHT22;61650;48.882;2.092;2023-02-28T17:25:22;3.10;40.50
51559;DHT22;61650;48.882;2.092;2023-02-28T17:27:49;3.10;40.80
51559;DHT22;61650;48.882;2.092;2023-02-28T17:30:19;3.00;40.90
51559;DHT22;61650;48.882;2.092;2023-02-28T17:32:45;3.00;41.00
51559;DHT22;61650;48.882;2.092;2023-02-28T17:35:11;2.90;41.00
51559;DHT22;61650;48.882;2.092;2023-02-28T17:37:36;2.90;41.00
51559;DHT22;61650;48.882;2.092;2023-02-28T17:40:03;2.80;41.00
51559;DHT22;61650;48.882;2.092;2023-02-28T17:42:28;2.80;41.30
51559;DHT22;61650;48.882;2.092;2023-02-28T17:44:54;2.70;41.50
51559;DHT22;61650;48.882;2.092;2023-02-28T17:47:20;2.70;41.80
51559;DHT22;61650;48.882;2.092;2023-02-28T17:49:45;2.60;41.80
51559;DHT22;61650;48.882;2.092;2023-02-28T17:52:11;2.60;41.80
51559;DHT22;61650;48.882;2.092;2023-02-28T17:54:36;2.60;42.00
51559;DHT22;61650;48.882;2.092;2023-02-28T17:57:02;2.50;42.10
51559;DHT22;61650;48.882;2.092;2023-02-28T17:59:28;2.50;42.20
51559;DHT22;61650;48.882;2.092;2023-02-28T18:01:59;2.50;42.30
51559;DHT22;61650;48.882;2.092;2023-02-28T18:04:25;2.50;42.50
51559;DHT22;61650;48.882;2.092;2023-02-28T18:06:53;2.50;42.40
51559;DHT22;61650;48.882;2.092;2023-02-28T18:09:22;2.50;42.30
51559;DHT22;61650;48.882;2.092;2023-02-28T18:11:49;2.60;42.30
51559;DHT22;61650;48.882;2.092;2023-02-28T18:14:16;2.60;42.40
51559;DHT22;61650;48.882;2.092;2023-02-28T18:16:42;2.60;42.30